Friday, April 18, 2014
23:18 UTC
  |  Log In   |  Register Free
Airport Search:

Jackson-Evers International Airport
(KJAN)

FAA data valid effective April 3, 2014 until May 29, 2014 (unless otherwise noted).

 
 
 
 
 
 
 
 
 
 
 
 
 
 

Current Aviation Weather for Jackson-Evers International Airport (KJAN)

The most recent METAR observation for KJAN was updated at: 2254 UTC
METAR Summary (Translated METAR)
KJAN
182254Z 02010KT 10SM BKN047 BKN085 22/12 A3011 RMK AO2 SLP191 T02220117
KHKS
(7.6 nm NW from KJAN)
182253Z 10SM FEW039 BKN080 21/12 A3011 RMK AO2 SLP190 T02110117 $
TAF Summary (Translated TAF)
KJAN
181957Z 1820/1918 36007G15KT P6SM BKN035 FM190200 04002KT P6SM SCT100 FM190800 33003KT P6SM SKC
KHKS
(7.6 nm NW from KJAN)
181720Z 1818/1918 VRB06KT P6SM SCT013 OVC070 FM190200 04002KT P6SM SCT100 FM190800 33003KT P6SM SKC
  Airport Weather Conditions for KJAN

 Current Weather at JAN
72° F
Mostly Cloudy
North winds at 11.5 mph
JAN NOAA Radar

Pressure: 30.11 in
Humidity: 52%
Wind: North at 11.5 MPH (10 KT)
Dew Point: 53.1°F
Visibility: 10.00 mi


Airport Weather Forecast for KJAN

Translated METAR and TAF for KJAN
Translated METAR for KJAN (2318 UTC 18 April 2014)
found at http://aviationweather.gov/adds/metars/
 
METAR text: KJAN 182254Z 02010KT 10SM BKN047 BKN085 22/12 A3011 RMK AO2 SLP191 T02220117
Conditions at: KJAN (JACKSON , MS, US) observed 2254 UTC 18 April 2014
Temperature: 22.2°C (72°F)
Dewpoint: 11.7°C (53°F) [RH = 51%]
Pressure (altimeter): 30.11 inches Hg (1019.7 mb)
[Sea-level pressure: 1019.1 mb]
Winds: from the NNE (20 degrees) at 12 MPH (10 knots; 5.2 m/s)
Visibility: 10 or more miles (16+ km)
Ceiling: 4700 feet AGL
Clouds: broken clouds at 4700 feet AGL
broken clouds at 8500 feet AGL
Weather: no significant weather observed at this time
Translated TAF for KJAN
Forecast for: KJAN (JACKSON , MS, US)
TAF Text: KJAN 181957Z 1820/1918 36007G15KT P6SM BKN035
Forecast period: 2000 UTC 18 April 2014 to 0200 UTC 19 April 2014
Forecast type: FROM: standard forecast or significant change
Winds: from the N (360 degrees) at 8 MPH (7 knots; 3.6 m/s)
gusting to 17 MPH (15 knots; 7.8 m/s)
Visibility: 6 or more miles (10+ km)
Ceiling: 3500 feet AGL
Clouds: broken clouds at 3500 feet AGL
Weather: no significant weather forecast for this period
TAF Text: FM190200 04002KT P6SM SCT100
Forecast period: 0200 to 0800 UTC 19 April 2014
Forecast type: FROM: standard forecast or significant change
Winds: from the NE (40 degrees) at 2 MPH (2 knots; 1.0 m/s)
Visibility: 6 or more miles (10+ km)
Clouds: scattered clouds at 10000 feet AGL
Weather: no significant weather forecast for this period
TAF Text: FM190800 33003KT P6SM SKC
Forecast period: 0800 to 1800 UTC 19 April 2014
Forecast type: FROM: standard forecast or significant change
Winds: from the NNW (330 degrees) at 3 MPH (3 knots; 1.6 m/s)
Visibility: 6 or more miles (10+ km)
Clouds: clear skies
Weather: no significant weather forecast for this period

Find All Airport Services Find A Hotel Find A Rental Car Find A Golf Course Find A Restaurant $100 Hamburger



FBO's on the Field
FBO Company Facility Photos Services Transportation Aviation Fuel Prices: Prices include tax
Catering Weather Repair Courtesy Rental Type 100LL JetA JetA+ MOGAS 8087
 
Atlantic Aviation

This FBO has not yet been rated
FS:Chevron
Last Updated: Apr-17
Login to update fuel prices
SS:
Contact Atlantic AviationMore FBO Information
 
Add another FBO Facility Photos Catering Weather Repair Courtesy Rental Type 100LL JetA JetA+ MOGAS 8087
Services Transportation Aviation Fuel Prices: Prices include tax


GlobalAir.com Airport Resource Center model-print
model-print
model-print
model-print